Time;durP1;ratioP1;P1;durP2;ratioP2;P2;SDS_P1;SDS_P2;PMS_P1;PMS_P2;Temp;Humidity;BMP_temperature;BMP_pressure;BME280_temperature;BME280_humidity;BME280_pressure;Samples;Min_cycle;Max_cycle;Signal;HPM_P1;HPM_P2
2023/06/04 00:02:57;;;;;;;12.50;6.60;;;;;;;6.91;52.24;100843.98;131440;1253;107538;-81
2023/06/04 00:06:03;;;;;;;11.90;6.50;;;;;;;6.88;52.45;100838.47;131403;1251;107516;-81
2023/06/04 00:09:09;;;;;;;12.90;7.00;;;;;;;6.88;52.57;100844.70;131396;1254;107510;-81
2023/06/04 00:12:14;;;;;;;11.90;7.70;;;;;;;6.85;52.71;100845.95;131310;1251;107540;-80
2023/06/04 00:15:20;;;;;;;13.30;7.70;;;;;;;6.82;52.77;100843.17;131260;1253;107498;-80
2023/06/04 00:18:25;;;;;;;13.20;7.30;;;;;;;6.79;52.77;100841.11;131312;1254;105739;-81
2023/06/04 00:21:31;;;;;;;15.00;7.50;;;;;;;6.74;52.81;100845.20;131348;1253;105658;-80
2023/06/04 00:24:38;;;;;;;12.80;7.10;;;;;;;6.70;52.92;100845.86;131370;1251;107298;-82
2023/06/04 00:27:43;;;;;;;12.10;7.00;;;;;;;6.66;52.88;100848.97;131551;1251;107488;-80
2023/06/04 00:30:49;;;;;;;13.70;7.60;;;;;;;6.62;52.98;100844.70;131202;1257;107138;-80
2023/06/04 00:33:54;;;;;;;13.40;7.10;;;;;;;6.58;53.03;100846.77;131246;1253;107513;-80
2023/06/04 00:37:01;;;;;;;12.80;7.40;;;;;;;6.53;52.99;100845.31;131188;1254;107488;-81
2023/06/04 00:40:08;;;;;;;12.50;7.20;;;;;;;6.51;53.34;100843.76;131377;1254;107527;-81
2023/06/04 00:43:14;;;;;;;12.50;7.50;;;;;;;6.47;53.14;100846.60;131261;1254;107559;-81
2023/06/04 00:46:21;;;;;;;12.20;7.40;;;;;;;6.42;53.02;100841.55;131238;1255;106984;-81
2023/06/04 00:49:26;;;;;;;12.50;7.20;;;;;;;6.39;53.17;100841.61;131218;1254;107521;-80
2023/06/04 00:52:32;;;;;;;13.20;7.00;;;;;;;6.36;53.40;100840.38;131318;1250;106310;-82
2023/06/04 00:55:37;;;;;;;11.00;6.70;;;;;;;6.34;53.49;100841.27;131306;1251;106504;-81
2023/06/04 00:58:44;;;;;;;12.90;8.60;;;;;;;6.29;53.43;100838.77;131236;1251;107531;-81
2023/06/04 01:01:56;;;;;;;13.70;8.70;;;;;;;6.26;53.35;100836.65;131250;1253;107493;-82
2023/06/04 01:05:12;;;;;;;13.30;8.20;;;;;;;6.24;53.40;100834.69;131501;1255;107962;-82
2023/06/04 01:08:19;;;;;;;11.90;7.40;;;;;;;6.21;53.52;100834.77;131321;1251;107382;-81
2023/06/04 01:11:35;;;;;;;10.60;6.80;;;;;;;6.16;53.65;100836.52;131345;1251;106351;-81
2023/06/04 01:14:41;;;;;;;15.90;7.80;;;;;;;6.07;53.86;100838.52;131469;1254;105782;-80
2023/06/04 01:17:51;;;;;;;13.70;8.00;;;;;;;6.04;53.81;100840.91;131333;1251;107134;-82
2023/06/04 01:21:01;;;;;;;13.90;8.40;;;;;;;6.02;54.19;100841.44;131254;1254;107242;-81
2023/06/04 01:24:09;;;;;;;14.60;8.20;;;;;;;5.99;53.93;100842.15;131416;1253;107499;-83
2023/06/04 01:27:15;;;;;;;13.20;8.10;;;;;;;5.96;54.38;100837.96;131525;1253;107450;-81
2023/06/04 01:30:25;;;;;;;15.20;8.10;;;;;;;5.95;54.41;100836.10;131382;1255;109024;-83
2023/06/04 01:33:30;;;;;;;13.60;7.40;;;;;;;5.92;54.44;100837.52;131548;1251;107486;-81
2023/06/04 01:36:37;;;;;;;12.20;6.80;;;;;;;5.89;54.40;100839.95;131373;1253;107449;-81
2023/06/04 01:39:42;;;;;;;10.60;6.80;;;;;;;5.88;54.55;100836.88;131535;1253;107597;-79
2023/06/04 01:42:48;;;;;;;11.70;6.90;;;;;;;5.86;54.55;100835.95;131246;1250;107241;-79
2023/06/04 01:45:54;;;;;;;11.40;7.10;;;;;;;5.85;54.54;100835.33;131244;1257;107489;-81
2023/06/04 01:48:59;;;;;;;10.30;7.00;;;;;;;5.83;54.81;100832.50;131348;1253;107474;-81
2023/06/04 01:52:06;;;;;;;12.90;7.00;;;;;;;5.80;54.52;100832.51;131417;1253;107466;-79
2023/06/04 01:55:14;;;;;;;12.40;7.00;;;;;;;5.79;54.87;100830.11;131291;1253;107633;-80
2023/06/04 01:58:22;;;;;;;11.50;7.40;;;;;;;5.77;54.71;100831.35;131424;1253;107968;-81
2023/06/04 02:01:28;;;;;;;10.80;6.40;;;;;;;5.72;54.81;100830.79;131228;1256;107542;-81
2023/06/04 02:04:36;;;;;;;12.70;7.40;;;;;;;5.70;54.95;100835.29;131897;1249;107552;-80
2023/06/04 02:07:44;;;;;;;11.50;7.00;;;;;;;5.70;54.88;100833.58;131280;1254;107451;-80
2023/06/04 02:10:51;;;;;;;12.10;7.00;;;;;;;5.67;55.11;100833.41;131291;1253;106797;-80
2023/06/04 02:13:56;;;;;;;12.80;7.00;;;;;;;5.65;55.02;100829.33;131160;1250;107588;-80
2023/06/04 02:17:04;;;;;;;13.30;7.00;;;;;;;5.63;55.13;100829.45;131206;1253;107454;-80
2023/06/04 02:20:11;;;;;;;12.10;6.90;;;;;;;5.62;55.23;100835.01;131944;1250;107392;-81
2023/06/04 02:23:18;;;;;;;11.10;6.80;;;;;;;5.61;55.41;100833.65;132185;1251;106529;-78
2023/06/04 02:26:24;;;;;;;11.80;6.60;;;;;;;5.62;55.22;100837.48;131828;1253;107628;-78
2023/06/04 02:29:30;;;;;;;11.50;6.80;;;;;;;5.63;55.20;100834.73;131598;1253;107534;-82
2023/06/04 02:32:36;;;;;;;14.60;8.00;;;;;;;5.64;55.38;100831.01;131271;1255;107559;-81
2023/06/04 02:35:42;;;;;;;13.00;7.90;;;;;;;5.63;55.37;100830.87;131190;1251;107379;-81
2023/06/04 02:38:48;;;;;;;14.00;7.80;;;;;;;5.61;55.42;100830.48;131358;1251;107644;-81
2023/06/04 02:41:53;;;;;;;11.20;7.10;;;;;;;5.58;55.64;100825.79;131291;1253;106393;-80
2023/06/04 02:44:58;;;;;;;10.30;6.50;;;;;;;5.57;55.79;100824.63;131373;1253;108067;-81
2023/06/04 02:48:04;;;;;;;9.70;5.90;;;;;;;5.57;55.67;100825.13;131365;1253;107488;-81
2023/06/04 02:51:11;;;;;;;9.30;5.60;;;;;;;5.57;55.84;100822.80;131256;1250;107583;-80
2023/06/04 02:54:17;;;;;;;8.50;5.70;;;;;;;5.59;56.00;100826.07;131355;1251;107545;-82
2023/06/04 02:57:23;;;;;;;9.80;5.70;;;;;;;5.59;55.98;100827.83;131290;1251;107290;-82
2023/06/04 03:00:28;;;;;;;9.00;6.10;;;;;;;5.59;56.15;100829.74;131310;1253;107529;-81
2023/06/04 03:03:34;;;;;;;14.80;8.00;;;;;;;5.62;55.96;100830.23;131298;1251;107511;-80
2023/06/04 03:06:40;;;;;;;17.70;9.20;;;;;;;5.65;56.04;100831.80;131615;1253;107416;-79
2023/06/04 03:09:46;;;;;;;20.00;10.30;;;;;;;5.70;56.16;100836.39;131888;1251;107335;-78
2023/06/04 03:12:51;;;;;;;13.60;7.60;;;;;;;5.72;56.14;100834.66;131470;1253;107341;-80
2023/06/04 03:16:00;;;;;;;10.40;6.50;;;;;;;5.79;56.29;100836.09;131833;1253;107521;-80
2023/06/04 03:19:06;;;;;;;9.90;5.80;;;;;;;5.89;56.27;100834.70;131438;1253;107507;-81
2023/06/04 03:22:12;;;;;;;10.10;5.80;;;;;;;6.04;56.32;100832.28;132208;1251;107486;-81
2023/06/04 03:25:17;;;;;;;11.40;5.80;;;;;;;6.19;56.63;100830.65;132313;1251;107509;-80
2023/06/04 03:28:23;;;;;;;11.50;5.90;;;;;;;6.34;56.43;100830.29;132284;1249;107538;-80
2023/06/04 03:31:28;;;;;;;8.00;5.10;;;;;;;6.55;56.34;100834.42;132020;1250;107611;-78
2023/06/04 03:34:36;;;;;;;7.90;5.40;;;;;;;6.75;56.39;100833.11;131665;1253;107565;-80
2023/06/04 03:37:42;;;;;;;8.20;5.00;;;;;;;7.02;56.58;100838.35;131419;1249;107545;-81
2023/06/04 03:40:49;;;;;;;9.70;5.20;;;;;;;7.34;56.53;100834.69;132487;1249;107434;-80
2023/06/04 03:43:55;;;;;;;8.30;5.10;;;;;;;7.64;56.39;100831.16;132428;1251;107455;-80
2023/06/04 03:47:02;;;;;;;7.90;5.80;;;;;;;7.97;56.41;100836.15;132230;1253;107471;-80
2023/06/04 03:50:09;;;;;;;7.40;5.30;;;;;;;8.33;56.41;100834.20;131975;1249;107424;-80
2023/06/04 03:53:16;;;;;;;8.40;5.10;;;;;;;8.62;56.55;100835.95;132111;1251;107563;-81
2023/06/04 03:56:22;;;;;;;7.80;5.30;;;;;;;8.90;56.35;100829.84;131802;1253;107540;-81
2023/06/04 03:59:27;;;;;;;7.30;5.10;;;;;;;9.16;56.39;100831.20;131701;1251;107551;-81
2023/06/04 04:02:33;;;;;;;10.60;4.70;;;;;;;9.44;56.73;100829.92;131391;1253;107140;-81
2023/06/04 04:05:39;;;;;;;7.50;4.80;;;;;;;9.72;56.56;100824.85;131276;1251;107572;-81
2023/06/04 04:08:46;;;;;;;10.20;4.90;;;;;;;9.99;56.64;100823.05;131925;1251;107536;-80
2023/06/04 04:11:52;;;;;;;7.20;5.10;;;;;;;10.25;56.49;100820.55;131961;1253;107627;-81
2023/06/04 04:14:59;;;;;;;7.70;4.80;;;;;;;10.55;56.61;100822.86;131700;1253;107179;-81
2023/06/04 04:18:04;;;;;;;9.80;5.10;;;;;;;10.84;56.56;100820.98;131380;1251;107533;-83
2023/06/04 04:21:12;;;;;;;6.60;4.60;;;;;;;11.14;56.46;100816.77;131280;1253;107498;-80
2023/06/04 04:24:26;;;;;;;8.70;4.70;;;;;;;11.42;56.70;100813.77;131505;1249;107371;-81
2023/06/04 04:27:34;;;;;;;8.00;4.70;;;;;;;11.71;56.60;100816.02;131249;1249;107492;-81
2023/06/04 04:30:41;;;;;;;7.60;5.00;;;;;;;12.00;56.80;100817.19;131223;1253;107300;-81
2023/06/04 04:33:47;;;;;;;7.60;5.00;;;;;;;12.30;56.88;100818.61;131450;1249;107532;-81
2023/06/04 04:36:54;;;;;;;7.50;5.20;;;;;;;12.57;56.97;100817.58;131367;1250;107490;-82
2023/06/04 04:40:07;;;;;;;9.00;4.80;;;;;;;12.82;56.75;100817.19;131792;1254;107420;-81
2023/06/04 04:43:12;;;;;;;7.10;4.20;;;;;;;13.03;56.44;100815.45;131188;1253;106465;-81
2023/06/04 04:46:19;;;;;;;5.90;4.00;;;;;;;13.24;56.29;100816.52;131175;1254;107510;-81
2023/06/04 04:49:25;;;;;;;5.70;4.20;;;;;;;13.45;56.19;100820.88;131415;1253;108145;-81
2023/06/04 04:52:31;;;;;;;4.90;3.30;;;;;;;13.64;55.95;100819.24;131345;1249;107463;-82
2023/06/04 04:55:37;;;;;;;4.90;3.60;;;;;;;13.83;55.88;100818.34;131375;1251;107507;-81
2023/06/04 04:58:43;;;;;;;6.00;3.30;;;;;;;14.00;55.63;100814.92;131501;1254;107618;-81
2023/06/04 05:01:49;;;;;;;4.80;3.60;;;;;;;14.16;55.67;100809.48;131409;1253;107499;-82
2023/06/04 05:04:55;;;;;;;4.50;3.20;;;;;;;14.35;55.54;100814.16;131020;1253;326068;-81
2023/06/04 05:08:01;;;;;;;7.60;3.20;;;;;;;14.52;55.29;100816.02;131585;1253;107550;-82
2023/06/04 05:11:11;;;;;;;5.30;3.00;;;;;;;14.69;55.17;100816.60;131465;1253;106703;-82
2023/06/04 05:14:17;;;;;;;5.80;2.80;;;;;;;14.82;54.87;100818.45;131514;1253;107548;-81
2023/06/04 05:17:29;;;;;;;4.80;2.70;;;;;;;14.92;54.65;100813.20;131378;1250;107524;-82
2023/06/04 05:20:37;;;;;;;3.00;2.40;;;;;;;15.04;54.85;100813.33;131333;1253;107545;-82
2023/06/04 05:23:45;;;;;;;3.50;2.60;;;;;;;15.17;54.76;100813.31;131627;1249;108663;-81
2023/06/04 05:26:51;;;;;;;4.30;2.60;;;;;;;15.32;54.38;100816.52;131403;1253;107620;-80
2023/06/04 05:29:58;;;;;;;3.20;2.50;;;;;;;15.45;54.44;100812.73;131327;1256;107514;-81
2023/06/04 05:33:04;;;;;;;4.10;2.10;;;;;;;15.52;54.14;100812.83;131675;1256;107514;-80
2023/06/04 05:36:09;;;;;;;3.10;2.00;;;;;;;15.61;53.91;100807.35;131368;1253;107568;-79
2023/06/04 05:39:23;;;;;;;3.00;2.20;;;;;;;15.70;53.68;100806.38;131194;1253;107852;-78
2023/06/04 05:42:35;;;;;;;4.80;2.00;;;;;;;15.76;53.50;100805.48;131269;1253;107498;-76
2023/06/04 05:45:41;;;;;;;4.40;2.30;;;;;;;15.84;53.31;100804.27;131074;1253;107418;-76
2023/06/04 05:48:47;;;;;;;3.00;2.20;;;;;;;15.91;53.00;100810.47;131173;1253;107364;-76
2023/06/04 05:51:53;;;;;;;3.30;2.20;;;;;;;15.96;53.17;100813.48;131028;1253;107361;-77
2023/06/04 05:55:00;;;;;;;2.80;2.10;;;;;;;16.04;53.08;100810.58;131122;1253;107490;-76
2023/06/04 05:58:05;;;;;;;3.10;1.90;;;;;;;16.11;52.64;100810.85;131003;1253;107461;-76
2023/06/04 06:01:11;;;;;;;3.60;1.70;;;;;;;16.16;52.50;100811.84;131126;1254;107530;-75
2023/06/04 06:04:17;;;;;;;1.80;1.40;;;;;;;16.19;52.08;100811.59;131118;1253;107475;-75
2023/06/04 06:07:23;;;;;;;2.20;1.60;;;;;;;16.21;51.67;100814.81;131149;1253;107428;-76
2023/06/04 06:10:29;;;;;;;2.80;1.30;;;;;;;16.20;51.32;100821.55;131190;1253;107511;-75
2023/06/04 06:13:35;;;;;;;1.90;1.40;;;;;;;16.20;51.17;100820.67;131097;1253;106365;-75
2023/06/04 06:16:41;;;;;;;1.90;1.30;;;;;;;16.21;51.11;100824.34;131142;1253;107509;-75
2023/06/04 06:19:47;;;;;;;1.80;1.40;;;;;;;16.24;51.19;100823.98;131066;1253;107535;-75
2023/06/04 06:22:52;;;;;;;3.90;1.40;;;;;;;16.26;51.17;100820.71;131138;1253;107401;-75
2023/06/04 06:26:01;;;;;;;5.20;1.40;;;;;;;16.28;51.24;100823.11;131083;1250;108578;-74
2023/06/04 06:29:10;;;;;;;3.10;1.30;;;;;;;16.30;50.63;100826.88;131167;1251;107449;-75
2023/06/04 06:32:16;;;;;;;1.70;1.30;;;;;;;16.30;50.63;100824.69;131078;1253;107532;-75
2023/06/04 06:35:21;;;;;;;3.20;1.20;;;;;;;16.33;50.45;100821.15;131148;1251;106023;-77
2023/06/04 06:38:27;;;;;;;2.50;1.20;;;;;;;16.34;50.25;100825.27;131445;1253;106683;-74
2023/06/04 06:41:33;;;;;;;2.50;1.10;;;;;;;16.37;50.27;100825.79;131283;1253;107660;-75
2023/06/04 06:44:38;;;;;;;1.10;0.90;;;;;;;16.40;49.83;100823.02;131105;1253;107487;-75
2023/06/04 06:47:44;;;;;;;1.30;0.90;;;;;;;16.45;49.96;100827.47;131139;1253;107549;-76
2023/06/04 06:50:50;;;;;;;1.40;1.00;;;;;;;16.51;49.94;100829.70;131250;1253;107256;-75
2023/06/04 06:53:55;;;;;;;2.20;1.10;;;;;;;16.56;49.82;100827.64;131283;1251;107456;-75
2023/06/04 06:57:02;;;;;;;1.70;1.00;;;;;;;16.64;49.89;100830.48;131103;1253;107519;-75
2023/06/04 07:00:11;;;;;;;2.30;1.40;;;;;;;16.71;49.45;100832.17;131053;1253;107352;-75
2023/06/04 07:03:16;;;;;;;1.60;1.10;;;;;;;16.75;49.45;100833.09;131522;1253;107232;-76
2023/06/04 07:06:22;;;;;;;2.30;1.30;;;;;;;16.80;49.27;100837.59;131389;1254;108793;-78
2023/06/04 07:09:28;;;;;;;3.50;1.20;;;;;;;16.85;49.14;100840.90;131491;1250;107450;-76
2023/06/04 07:12:33;;;;;;;3.30;1.50;;;;;;;16.89;48.46;100838.52;131392;1251;106881;-77
2023/06/04 07:15:39;;;;;;;3.20;1.70;;;;;;;16.90;48.02;100838.08;131458;1250;106563;-79
2023/06/04 07:18:46;;;;;;;1.30;1.00;;;;;;;16.92;48.09;100840.55;131441;1253;107138;-79
2023/06/04 07:21:54;;;;;;;2.60;1.00;;;;;;;16.96;47.71;100835.37;131447;1253;107414;-79
2023/06/04 07:25:00;;;;;;;2.00;1.30;;;;;;;17.02;47.97;100839.12;131452;1251;107411;-78
2023/06/04 07:28:06;;;;;;;1.70;0.80;;;;;;;17.11;47.48;100837.73;131193;1253;107454;-79
2023/06/04 07:31:12;;;;;;;2.70;1.10;;;;;;;17.19;47.46;100838.95;131522;1253;107562;-79
2023/06/04 07:34:17;;;;;;;1.20;0.90;;;;;;;17.27;47.46;100840.36;131412;1249;107500;-80
2023/06/04 07:37:23;;;;;;;2.40;1.10;;;;;;;17.34;46.61;100842.38;131527;1253;107431;-79
2023/06/04 07:40:28;;;;;;;2.50;1.20;;;;;;;17.41;46.43;100846.47;131368;1253;106698;-79
2023/06/04 07:43:35;;;;;;;2.70;1.10;;;;;;;17.44;45.52;100841.08;131603;1251;107629;-80
2023/06/04 07:46:41;;;;;;;2.30;1.10;;;;;;;17.46;45.65;100843.69;133194;1250;107209;-81
2023/06/04 07:49:46;;;;;;;7.30;4.70;;;;;;;17.49;44.89;100844.23;131469;1253;107493;-79
2023/06/04 07:52:52;;;;;;;12.80;7.60;;;;;;;17.58;44.81;100843.83;131505;1253;107536;-79
2023/06/04 07:55:59;;;;;;;2.70;1.80;;;;;;;17.71;45.06;100835.01;131442;1251;107524;-80
2023/06/04 07:59:05;;;;;;;3.50;2.20;;;;;;;17.83;44.73;100836.89;131427;1251;106275;-79
2023/06/04 08:02:10;;;;;;;5.70;2.90;;;;;;;17.90;44.08;100837.14;131242;1253;107280;-79
2023/06/04 08:05:16;;;;;;;6.50;3.00;;;;;;;17.91;43.62;100838.27;131261;1253;107548;-79
2023/06/04 08:08:22;;;;;;;2.60;1.30;;;;;;;17.97;43.92;100836.82;131509;1251;107251;-79
2023/06/04 08:11:27;;;;;;;2.90;1.60;;;;;;;18.02;43.38;100832.36;131507;1253;107460;-80
2023/06/04 08:14:33;;;;;;;6.90;3.80;;;;;;;18.11;43.36;100832.45;131519;1258;107516;-80
2023/06/04 08:17:38;;;;;;;2.30;1.30;;;;;;;18.16;43.28;100835.02;131269;1253;107569;-79
2023/06/04 08:20:44;;;;;;;2.20;1.30;;;;;;;18.23;43.19;100832.07;131214;1253;106682;-79
2023/06/04 08:23:49;;;;;;;4.30;1.50;;;;;;;18.28;42.80;100830.04;131314;1253;106780;-79
2023/06/04 08:26:55;;;;;;;2.10;1.30;;;;;;;18.29;42.31;100837.92;131500;1253;107610;-80
2023/06/04 08:30:01;;;;;;;5.30;2.60;;;;;;;18.32;42.64;100831.65;131525;1250;107543;-79
2023/06/04 08:33:07;;;;;;;2.80;1.10;;;;;;;18.36;42.32;100827.73;131472;1253;107580;-79
2023/06/04 08:36:13;;;;;;;1.60;1.00;;;;;;;18.40;41.99;100828.46;131315;1253;107548;-82
2023/06/04 08:39:18;;;;;;;2.60;1.00;;;;;;;18.40;40.70;100822.38;131859;1249;108655;-82
2023/06/04 08:42:30;;;;;;;2.00;0.90;;;;;;;18.45;41.73;100823.23;131891;1253;108327;-83
2023/06/04 08:45:40;;;;;;;1.00;0.60;;;;;;;18.49;41.20;100823.31;131619;1253;107440;-82
2023/06/04 08:48:47;;;;;;;1.70;0.70;;;;;;;18.50;41.23;100827.52;131452;1253;107606;-79
2023/06/04 08:51:52;;;;;;;3.90;1.70;;;;;;;18.52;41.30;100826.83;131493;1253;106798;-82
2023/06/04 08:54:58;;;;;;;3.50;1.80;;;;;;;18.58;41.29;100831.73;131514;1265;107532;-82
2023/06/04 08:58:07;;;;;;;3.20;1.10;;;;;;;18.62;40.81;100831.73;131410;1253;107468;-82
2023/06/04 09:01:14;;;;;;;1.60;1.00;;;;;;;18.65;40.62;100831.34;131747;1250;107350;-82
2023/06/04 09:04:20;;;;;;;1.00;0.70;;;;;;;18.64;40.38;100827.25;131524;1253;108640;-82
2023/06/04 09:07:27;;;;;;;1.40;0.70;;;;;;;18.64;40.36;100826.88;131417;1253;107268;-82
2023/06/04 09:10:35;;;;;;;1.00;0.60;;;;;;;18.66;40.40;100819.80;131226;1253;107570;-82
2023/06/04 09:13:42;;;;;;;2.90;0.90;;;;;;;18.72;39.99;100820.90;131298;1249;107404;-80
2023/06/04 09:16:49;;;;;;;1.40;0.90;;;;;;;18.74;39.04;100814.17;131380;1254;106390;-80
2023/06/04 09:19:55;;;;;;;0.90;0.70;;;;;;;18.64;38.06;100810.37;131485;1253;107540;-80
2023/06/04 09:23:00;;;;;;;2.30;1.10;;;;;;;18.64;39.52;100804.96;131271;1254;107510;-80
2023/06/04 09:26:10;;;;;;;1.10;0.70;;;;;;;18.73;39.79;100804.55;131366;1255;107228;-80
2023/06/04 09:29:16;;;;;;;2.80;0.70;;;;;;;18.83;39.70;100804.01;131360;1253;106710;-80
2023/06/04 09:32:26;;;;;;;1.00;0.70;;;;;;;18.88;39.08;100800.73;131479;1253;107870;-80
2023/06/04 09:35:32;;;;;;;1.20;0.80;;;;;;;18.89;38.84;100800.58;131221;1265;107369;-80
2023/06/04 09:38:38;;;;;;;1.90;0.90;;;;;;;18.91;38.79;100807.34;131373;1253;107213;-80
2023/06/04 09:41:44;;;;;;;1.40;0.80;;;;;;;18.92;39.18;100801.30;131386;1253;108766;-80
2023/06/04 09:44:50;;;;;;;0.70;0.60;;;;;;;18.97;38.98;100798.27;131392;1258;107559;-80
2023/06/04 09:47:56;;;;;;;1.40;0.70;;;;;;;19.02;38.69;100799.89;131432;1253;107393;-80
2023/06/04 09:51:10;;;;;;;1.20;0.70;;;;;;;19.03;38.61;100798.95;131413;1254;107498;-80
2023/06/04 09:54:18;;;;;;;1.90;0.80;;;;;;;19.07;38.24;100796.39;131294;1253;107625;-80
2023/06/04 09:57:25;;;;;;;1.60;0.80;;;;;;;19.06;37.17;100796.13;131534;1251;107253;-81
2023/06/04 10:00:30;;;;;;;0.90;0.70;;;;;;;19.05;37.77;100799.47;131395;1250;107288;-80
2023/06/04 10:03:37;;;;;;;1.30;0.70;;;;;;;19.10;37.83;100798.20;131343;1251;107187;-80
2023/06/04 10:06:43;;;;;;;1.00;0.70;;;;;;;19.15;37.91;100791.88;131388;1253;107186;-80
2023/06/04 10:09:51;;;;;;;0.70;0.60;;;;;;;19.22;37.53;100798.39;131464;1253;107379;-80
2023/06/04 10:13:06;;;;;;;0.70;0.50;;;;;;;19.26;37.48;100803.16;131503;1253;107545;-80
2023/06/04 10:16:13;;;;;;;1.10;0.70;;;;;;;19.28;37.44;100797.98;131456;1253;107543;-80
2023/06/04 10:19:21;;;;;;;1.10;0.70;;;;;;;19.30;37.38;100795.90;131520;1253;107506;-82
2023/06/04 10:22:29;;;;;;;0.90;0.60;;;;;;;19.33;36.65;100797.76;131338;1250;107309;-81
2023/06/04 10:25:41;;;;;;;3.50;0.80;;;;;;;19.32;36.46;100789.97;131301;1263;107371;-80
2023/06/04 10:28:51;;;;;;;2.20;0.80;;;;;;;19.29;35.65;100786.73;131377;1256;110144;-81
2023/06/04 10:31:57;;;;;;;1.20;1.10;;;;;;;19.33;36.47;100785.93;131256;1254;107292;-81
2023/06/04 10:35:07;;;;;;;2.30;0.90;;;;;;;19.44;36.55;100782.93;131380;1263;107522;-81
2023/06/04 10:38:16;;;;;;;1.50;1.00;;;;;;;19.56;36.47;100783.54;131341;1251;106558;-82
2023/06/04 10:41:23;;;;;;;1.30;0.90;;;;;;;19.60;36.64;100778.45;131298;1251;109256;-81
2023/06/04 10:44:28;;;;;;;2.60;1.20;;;;;;;19.65;36.30;100780.63;131407;1251;105958;-81
2023/06/04 10:47:37;;;;;;;1.30;0.60;;;;;;;19.63;35.81;100777.39;131371;1253;107288;-81
2023/06/04 10:50:53;;;;;;;1.70;0.80;;;;;;;19.53;34.87;100770.20;131490;1249;107205;-81
2023/06/04 10:53:59;;;;;;;1.30;0.90;;;;;;;19.47;34.57;100766.01;131791;1251;107407;-82
2023/06/04 10:57:13;;;;;;;1.80;0.70;;;;;;;19.39;34.43;100767.73;131543;1253;107948;-79
2023/06/04 11:00:20;;;;;;;1.10;0.80;;;;;;;19.42;35.63;100765.92;131598;1253;107423;-79
2023/06/04 11:03:35;;;;;;;0.90;0.70;;;;;;;19.51;35.48;100762.20;131368;1253;108284;-79
2023/06/04 11:06:41;;;;;;;2.80;0.80;;;;;;;19.56;35.60;100760.31;131459;1253;107622;-79
2023/06/04 11:09:51;;;;;;;3.20;0.70;;;;;;;19.61;35.47;100757.20;131609;1251;107515;-79
2023/06/04 11:12:57;;;;;;;1.50;0.70;;;;;;;19.65;34.49;100761.84;131388;1251;107585;-78
2023/06/04 11:16:03;;;;;;;1.70;0.80;;;;;;;19.56;34.02;100761.31;131379;1253;108686;-78
2023/06/04 11:19:08;;;;;;;1.50;0.60;;;;;;;19.57;35.04;100755.77;131434;1254;107287;-78
2023/06/04 11:22:14;;;;;;;1.30;0.80;;;;;;;19.63;34.69;100757.77;131381;1254;107242;-78
2023/06/04 11:25:22;;;;;;;1.30;0.80;;;;;;;19.69;35.09;100759.20;131362;1253;107525;-78
2023/06/04 11:28:28;;;;;;;1.40;0.70;;;;;;;19.81;35.36;100758.29;131440;1253;106571;-79
2023/06/04 11:31:43;;;;;;;1.70;0.70;;;;;;;19.93;34.98;100753.88;131520;1251;107488;-79
2023/06/04 11:34:49;;;;;;;4.00;0.80;;;;;;;19.96;34.91;100755.48;131390;1252;107238;-79
2023/06/04 11:37:59;;;;;;;2.10;0.70;;;;;;;20.01;34.88;100753.48;131339;1252;107553;-79
2023/06/04 11:41:06;;;;;;;1.70;0.80;;;;;;;20.11;34.95;100752.20;131255;1253;107703;-77
2023/06/04 11:44:14;;;;;;;2.50;0.70;;;;;;;20.20;34.88;100758.19;131291;1253;107467;-79
2023/06/04 11:47:19;;;;;;;1.40;0.70;;;;;;;20.27;34.75;100750.86;131461;1253;108237;-76
2023/06/04 11:50:28;;;;;;;1.00;0.60;;;;;;;20.30;34.64;100755.09;131338;1253;107525;-80
2023/06/04 11:53:33;;;;;;;1.10;0.80;;;;;;;20.35;34.37;100755.09;131369;1253;107331;-80
2023/06/04 11:56:39;;;;;;;1.50;0.80;;;;;;;20.39;34.48;100756.73;131361;1254;107370;-80
2023/06/04 11:59:45;;;;;;;2.40;0.80;;;;;;;20.48;34.56;100757.95;131443;1254;107474;-79
2023/06/04 12:02:55;;;;;;;2.70;0.70;;;;;;;20.54;34.03;100752.21;131351;1251;108050;-81
2023/06/04 12:06:09;;;;;;;1.60;0.70;;;;;;;20.63;34.45;100753.37;131415;1253;107676;-80
2023/06/04 12:09:23;;;;;;;2.90;0.70;;;;;;;20.67;33.86;100749.20;131359;1253;107405;-79
2023/06/04 12:12:28;;;;;;;2.10;0.70;;;;;;;20.66;34.16;100748.67;131635;1253;107512;-79
2023/06/04 12:15:34;;;;;;;0.70;0.60;;;;;;;20.68;34.06;100745.57;131770;1249;107550;-78
2023/06/04 12:18:39;;;;;;;2.80;0.60;;;;;;;20.71;33.57;100748.01;131538;1251;106718;-78
2023/06/04 12:21:45;;;;;;;1.00;0.60;;;;;;;20.70;33.44;100744.86;131303;1254;107351;-81
2023/06/04 12:24:54;;;;;;;0.70;0.60;;;;;;;20.72;33.63;100744.45;131361;1250;107552;-81
2023/06/04 12:28:02;;;;;;;0.80;0.60;;;;;;;20.76;33.75;100744.20;131626;1250;107610;-80
2023/06/04 12:31:19;;;;;;;1.00;0.60;;;;;;;20.81;33.60;100742.48;131437;1251;107249;-80
2023/06/04 12:34:24;;;;;;;1.10;0.70;;;;;;;20.81;32.11;100743.20;131494;1253;109303;-80
2023/06/04 12:37:30;;;;;;;0.70;0.50;;;;;;;20.74;32.80;100742.53;131725;1253;107478;-80
2023/06/04 12:40:35;;;;;;;2.30;0.70;;;;;;;20.68;31.64;100743.73;131531;1253;108300;-79
2023/06/04 12:43:41;;;;;;;1.80;0.70;;;;;;;20.68;32.53;100747.33;131345;1251;107550;-78
2023/06/04 12:46:47;;;;;;;1.00;0.70;;;;;;;20.68;32.51;100742.11;131212;1263;107473;-79
2023/06/04 12:49:52;;;;;;;1.10;0.80;;;;;;;20.75;32.90;100746.00;131281;1254;107492;-79
2023/06/04 12:52:58;;;;;;;1.10;0.70;;;;;;;20.85;32.86;100742.20;131267;1261;107470;-80
2023/06/04 12:56:03;;;;;;;0.50;0.50;;;;;;;20.94;33.03;100743.24;131273;1257;106374;-79
2023/06/04 12:59:09;;;;;;;0.70;0.60;;;;;;;21.03;32.84;100745.94;131296;1254;107020;-79
2023/06/04 13:02:14;;;;;;;4.10;0.70;;;;;;;21.08;32.49;100743.02;131278;1251;107545;-78
2023/06/04 13:05:20;;;;;;;1.70;0.60;;;;;;;21.07;32.46;100740.30;131483;1256;107573;-79
2023/06/04 13:08:26;;;;;;;1.20;0.50;;;;;;;21.05;32.20;100738.69;131495;1263;107484;-79
2023/06/04 13:11:31;;;;;;;0.80;0.60;;;;;;;21.01;31.98;100738.47;131409;1253;107450;-80
2023/06/04 13:14:37;;;;;;;1.20;0.50;;;;;;;21.02;31.40;100737.06;131321;1254;105767;-79
2023/06/04 13:17:42;;;;;;;2.80;0.60;;;;;;;20.96;31.17;100733.94;131263;1253;107416;-79
2023/06/04 13:20:49;;;;;;;1.60;0.50;;;;;;;20.96;31.93;100732.19;131419;1253;106539;-80
2023/06/04 13:23:55;;;;;;;0.90;0.60;;;;;;;21.01;32.16;100729.88;131277;1254;107260;-79
2023/06/04 13:27:01;;;;;;;1.70;0.60;;;;;;;21.10;31.97;100728.83;131426;1253;107526;-77
2023/06/04 13:30:08;;;;;;;1.20;0.50;;;;;;;21.15;32.07;100730.23;131163;1253;107483;-76
2023/06/04 13:33:15;;;;;;;1.00;0.60;;;;;;;21.22;31.96;100732.02;131236;1251;106905;-77
2023/06/04 13:36:20;;;;;;;2.30;0.60;;;;;;;21.29;32.13;100732.92;131453;1254;107586;-78
2023/06/04 13:39:26;;;;;;;2.60;0.60;;;;;;;21.32;31.24;100727.23;131489;1249;107341;-79
2023/06/04 13:42:31;;;;;;;2.20;0.50;;;;;;;21.22;29.90;100725.71;131541;1253;107562;-78
2023/06/04 13:45:37;;;;;;;0.80;0.60;;;;;;;21.16;30.74;100726.89;131492;1251;107197;-78
2023/06/04 13:48:42;;;;;;;1.00;0.50;;;;;;;21.24;31.52;100723.48;131340;1253;107547;-77
2023/06/04 13:51:48;;;;;;;1.40;0.60;;;;;;;21.30;31.50;100726.03;131267;1250;107555;-77
2023/06/04 13:54:53;;;;;;;1.50;0.50;;;;;;;21.34;31.24;100717.67;131096;1253;108344;-77
2023/06/04 13:57:59;;;;;;;0.60;0.60;;;;;;;21.35;31.47;100718.04;131300;1253;107425;-77
2023/06/04 14:01:05;;;;;;;1.80;0.70;;;;;;;21.38;31.58;100712.39;131212;1253;107511;-77
2023/06/04 14:04:11;;;;;;;0.80;0.60;;;;;;;21.40;31.45;100712.71;131153;1254;107223;-76
2023/06/04 14:07:17;;;;;;;0.80;0.50;;;;;;;21.41;31.48;100709.12;131086;1254;107263;-77
2023/06/04 14:10:22;;;;;;;1.50;0.50;;;;;;;21.44;31.49;100712.77;131138;1253;107353;-77